Time;durP1;ratioP1;P1;durP2;ratioP2;P2;SDS_P1;SDS_P2;PMS_P1;PMS_P2;Temp;Humidity;BMP_temperature;BMP_pressure;BME280_temperature;BME280_humidity;BME280_pressure;Samples;Min_cycle;Max_cycle;Signal;HPM_P1;HPM_P2
2022/03/15 00:01:19;;;;;;;7.88;3.10;;;;;;;;;;8146825;28;20037;-59
2022/03/15 00:05:20;;;;;;;7.20;3.47;;;;;;;;;;8147787;29;20569;-59
2022/03/15 00:09:20;;;;;;;4.28;2.20;;;;;;;;;;8145608;29;20114;-60
2022/03/15 00:13:21;;;;;;;4.05;1.73;;;;;;;;;;8148558;28;20383;-59
2022/03/15 00:17:22;;;;;;;2.92;1.70;;;;;;;;;;8148191;28;20127;-58
2022/03/15 00:21:23;;;;;;;3.17;1.40;;;;;;;;;;8146985;28;20046;-58
2022/03/15 00:25:23;;;;;;;3.17;1.55;;;;;;;;;;8148369;29;20032;-59
2022/03/15 00:29:23;;;;;;;6.25;2.47;;;;;;;;;;8144790;29;20412;-59
2022/03/15 00:33:25;;;;;;;6.10;2.95;;;;;;;;;;8146985;28;20047;-60
2022/03/15 00:37:26;;;;;;;6.40;3.05;;;;;;;;;;8147290;29;20146;-59
2022/03/15 00:41:26;;;;;;;6.68;3.42;;;;;;;;;;8146891;28;20070;-59
2022/03/15 00:45:28;;;;;;;8.50;2.78;;;;;;;;;;8144078;28;20039;-59
2022/03/15 00:49:28;;;;;;;7.53;3.00;;;;;;;;;;8145541;28;20042;-59
2022/03/15 00:53:29;;;;;;;3.05;1.75;;;;;;;;;;8145892;28;20481;-59
2022/03/15 00:57:29;;;;;;;3.75;1.60;;;;;;;;;;8148190;29;20032;-59
2022/03/15 01:01:30;;;;;;;7.15;2.70;;;;;;;;;;8144198;28;20831;-58
2022/03/15 01:05:30;;;;;;;15.40;4.68;;;;;;;;;;8146402;29;20398;-58
2022/03/15 01:09:30;;;;;;;24.75;6.78;;;;;;;;;;8145234;28;20036;-59
2022/03/15 01:13:30;;;;;;;17.35;5.20;;;;;;;;;;8149744;28;20342;-59
2022/03/15 01:17:30;;;;;;;19.15;5.57;;;;;;;;;;8143644;28;20066;-58
2022/03/15 01:21:31;;;;;;;20.45;6.68;;;;;;;;;;8143652;28;20035;-59
2022/03/15 01:25:32;;;;;;;14.35;4.55;;;;;;;;;;8148781;28;20123;-59
2022/03/15 01:29:32;;;;;;;23.20;6.43;;;;;;;;;;8153800;29;20027;-58
2022/03/15 01:33:33;;;;;;;10.00;3.50;;;;;;;;;;8151179;28;20035;-58
2022/03/15 01:37:33;;;;;;;12.73;3.40;;;;;;;;;;8151054;29;20015;-58
2022/03/15 01:41:38;;;;;;;20.10;5.85;;;;;;;;;;8147537;28;20532;-59
2022/03/15 01:45:39;;;;;;;20.80;5.18;;;;;;;;;;8151495;28;20409;-59
2022/03/15 01:49:39;;;;;;;29.23;7.90;;;;;;;;;;8153133;28;20054;-59
2022/03/15 01:53:40;;;;;;;11.80;3.90;;;;;;;;;;8149835;28;20024;-59
2022/03/15 01:57:40;;;;;;;9.27;3.72;;;;;;;;;;8151981;28;20034;-58
2022/03/15 02:01:41;;;;;;;6.55;2.70;;;;;;;;;;8153302;28;21535;-59
2022/03/15 02:05:41;;;;;;;5.03;2.90;;;;;;;;;;8156111;29;20523;-59
2022/03/15 02:09:41;;;;;;;26.02;9.55;;;;;;;;;;8154655;28;20541;-56
2022/03/15 02:13:41;;;;;;;22.23;6.87;;;;;;;;;;8155331;29;20050;-57
2022/03/15 02:17:42;;;;;;;13.27;4.40;;;;;;;;;;8152153;28;20718;-58
2022/03/15 02:21:42;;;;;;;34.92;11.00;;;;;;;;;;8153342;28;20050;-59
2022/03/15 02:25:42;;;;;;;36.80;12.80;;;;;;;;;;8152604;28;20074;-60
2022/03/15 02:29:42;;;;;;;24.85;7.15;;;;;;;;;;8150335;28;20603;-57
2022/03/15 02:33:43;;;;;;;29.60;9.32;;;;;;;;;;8150591;28;20510;-58
2022/03/15 02:37:43;;;;;;;20.42;7.10;;;;;;;;;;8150965;28;20683;-58
2022/03/15 02:41:43;;;;;;;11.43;4.50;;;;;;;;;;8147897;28;20036;-59
2022/03/15 02:45:43;;;;;;;8.15;3.40;;;;;;;;;;8149544;28;20127;-58
2022/03/15 02:49:44;;;;;;;8.35;3.00;;;;;;;;;;8149772;28;20425;-59
2022/03/15 02:53:44;;;;;;;33.03;9.95;;;;;;;;;;8147957;28;20070;-58
2022/03/15 02:57:45;;;;;;;14.17;5.13;;;;;;;;;;8150099;29;20027;-58
2022/03/15 03:01:45;;;;;;;16.60;6.00;;;;;;;;;;8148152;28;20964;-57
2022/03/15 03:05:46;;;;;;;14.68;6.07;;;;;;;;;;8149839;28;20035;-58
2022/03/15 03:09:47;;;;;;;23.15;8.18;;;;;;;;;;8148697;28;20068;-57
2022/03/15 03:13:48;;;;;;;9.85;4.25;;;;;;;;;;8152498;29;20020;-57
2022/03/15 03:17:49;;;;;;;21.38;9.40;;;;;;;;;;8151256;28;20043;-58
2022/03/15 03:21:50;;;;;;;15.33;6.07;;;;;;;;;;8150110;28;20984;-58
2022/03/15 03:25:50;;;;;;;11.38;4.95;;;;;;;;;;8149558;29;20314;-59
2022/03/15 03:29:50;;;;;;;8.75;3.80;;;;;;;;;;8150364;29;20031;-58
2022/03/15 03:33:51;;;;;;;8.02;4.07;;;;;;;;;;8149795;28;20090;-59
2022/03/15 03:37:51;;;;;;;10.23;4.22;;;;;;;;;;8151567;28;20633;-59
2022/03/15 03:41:51;;;;;;;11.15;4.95;;;;;;;;;;8151125;28;20038;-57
2022/03/15 03:45:52;;;;;;;9.23;4.90;;;;;;;;;;8151693;28;21067;-59
2022/03/15 03:49:52;;;;;;;9.02;4.90;;;;;;;;;;8146405;28;20075;-58
2022/03/15 03:53:52;;;;;;;6.95;4.10;;;;;;;;;;8148689;28;20479;-58
2022/03/15 03:57:52;;;;;;;7.40;3.80;;;;;;;;;;8148488;29;20474;-58
2022/03/15 04:01:53;;;;;;;7.25;3.80;;;;;;;;;;8147967;28;20043;-58
2022/03/15 04:05:53;;;;;;;6.53;4.38;;;;;;;;;;8148011;29;20042;-58
2022/03/15 04:09:53;;;;;;;9.50;4.20;;;;;;;;;;8146456;28;20105;-58
2022/03/15 04:13:53;;;;;;;8.30;3.70;;;;;;;;;;8149594;29;20027;-58
2022/03/15 04:17:54;;;;;;;5.72;3.40;;;;;;;;;;8150046;28;20035;-58
2022/03/15 04:21:54;;;;;;;5.60;3.83;;;;;;;;;;8152156;28;20058;-58
2022/03/15 04:25:54;;;;;;;8.73;3.65;;;;;;;;;;8147700;28;20142;-58
2022/03/15 04:29:54;;;;;;;4.72;3.42;;;;;;;;;;8148034;28;20582;-58
2022/03/15 04:33:54;;;;;;;4.80;3.30;;;;;;;;;;8147100;28;20537;-58
2022/03/15 04:37:55;;;;;;;4.22;3.00;;;;;;;;;;8150148;29;20256;-58
2022/03/15 04:41:56;;;;;;;6.28;3.40;;;;;;;;;;8147412;28;20027;-59
2022/03/15 04:45:56;;;;;;;4.53;3.22;;;;;;;;;;8147143;28;20520;-58
2022/03/15 04:49:56;;;;;;;5.88;3.47;;;;;;;;;;8146208;28;20654;-59
2022/03/15 04:53:57;;;;;;;6.13;3.20;;;;;;;;;;8147814;29;20028;-59
2022/03/15 04:57:57;;;;;;;7.63;3.28;;;;;;;;;;8148191;29;20023;-57
2022/03/15 05:01:57;;;;;;;7.90;3.20;;;;;;;;;;8147730;28;20863;-57
2022/03/15 05:05:57;;;;;;;6.40;3.60;;;;;;;;;;8147329;29;20326;-56
2022/03/15 05:14:17;;;;;;;7.53;3.45;;;;;;;;;;8148858;29;20389;-59
2022/03/15 05:18:17;;;;;;;12.70;4.72;;;;;;;;;;8147287;28;20067;-58
2022/03/15 05:22:17;;;;;;;7.80;3.80;;;;;;;;;;8145092;28;20030;-58
2022/03/15 05:26:18;;;;;;;6.53;3.80;;;;;;;;;;8146292;28;20055;-57
2022/03/15 05:30:19;;;;;;;7.03;3.97;;;;;;;;;;8147633;28;20290;-59
2022/03/15 05:34:19;;;;;;;7.93;4.20;;;;;;;;;;8152070;29;20086;-59
2022/03/15 05:38:20;;;;;;;8.95;4.40;;;;;;;;;;8146776;28;20032;-59
2022/03/15 05:42:20;;;;;;;8.27;4.25;;;;;;;;;;8149086;28;20036;-59
2022/03/15 05:46:24;;;;;;;8.05;4.50;;;;;;;;;;8145534;28;20058;-59
2022/03/15 05:50:24;;;;;;;10.60;4.30;;;;;;;;;;8148343;29;20027;-61
2022/03/15 05:54:24;;;;;;;8.52;3.90;;;;;;;;;;8146362;29;20035;-59
2022/03/15 05:58:24;;;;;;;8.55;4.20;;;;;;;;;;8146869;28;20027;-58
2022/03/15 06:02:24;;;;;;;5.35;4.03;;;;;;;;;;8145041;28;20476;-57
2022/03/15 06:06:25;;;;;;;6.85;4.07;;;;;;;;;;8151124;29;20457;-57
2022/03/15 06:10:26;;;;;;;5.40;3.58;;;;;;;;;;8148538;28;20034;-58
2022/03/15 06:14:27;;;;;;;7.85;4.00;;;;;;;;;;8155102;28;20059;-58
2022/03/15 06:18:27;;;;;;;6.78;4.13;;;;;;;;;;8151582;28;20050;-60
2022/03/15 06:22:27;;;;;;;6.30;4.37;;;;;;;;;;8154371;28;20031;-57
2022/03/15 06:26:27;;;;;;;12.68;5.53;;;;;;;;;;8154447;28;20325;-59
2022/03/15 06:30:28;;;;;;;26.40;11.27;;;;;;;;;;8152633;28;20036;-57
2022/03/15 06:34:28;;;;;;;15.70;6.95;;;;;;;;;;8152599;29;20040;-58
2022/03/15 06:38:28;;;;;;;15.02;7.00;;;;;;;;;;8155181;28;20027;-63
2022/03/15 06:42:29;;;;;;;6.50;4.18;;;;;;;;;;8156772;29;20045;-57
2022/03/15 06:46:30;;;;;;;10.43;4.28;;;;;;;;;;8156424;28;20054;-58
2022/03/15 06:50:30;;;;;;;6.15;4.03;;;;;;;;;;8156798;28;20031;-58
2022/03/15 06:54:31;;;;;;;6.25;4.07;;;;;;;;;;8153019;28;20035;-57
2022/03/15 06:58:31;;;;;;;6.75;3.97;;;;;;;;;;8154104;28;20538;-57
2022/03/15 07:02:31;;;;;;;7.63;4.60;;;;;;;;;;8152788;28;20107;-58
2022/03/15 07:06:32;;;;;;;8.88;4.43;;;;;;;;;;8154223;28;20279;-57
2022/03/15 07:10:32;;;;;;;5.55;3.80;;;;;;;;;;8151733;28;20023;-59
2022/03/15 07:14:32;;;;;;;11.32;4.93;;;;;;;;;;8150504;29;20034;-60
2022/03/15 07:18:33;;;;;;;10.55;6.38;;;;;;;;;;8149398;28;20603;-59
2022/03/15 07:22:33;;;;;;;23.50;10.55;;;;;;;;;;8151238;28;20037;-57
2022/03/15 07:26:33;;;;;;;17.52;6.03;;;;;;;;;;8151310;29;20455;-57
2022/03/15 07:30:33;;;;;;;6.85;4.68;;;;;;;;;;8148833;28;20299;-57
2022/03/15 07:34:33;;;;;;;6.93;4.60;;;;;;;;;;8150752;29;20034;-58
2022/03/15 07:38:34;;;;;;;7.65;4.40;;;;;;;;;;8150759;28;20023;-58
2022/03/15 07:42:34;;;;;;;12.55;4.28;;;;;;;;;;8149088;28;20035;-58
2022/03/15 07:46:36;;;;;;;8.45;4.65;;;;;;;;;;8148274;28;20079;-58
2022/03/15 07:50:36;;;;;;;7.63;4.85;;;;;;;;;;8148667;28;20153;-60
2022/03/15 07:54:36;;;;;;;8.15;4.40;;;;;;;;;;8137474;28;20042;-58
2022/03/15 07:58:37;;;;;;;6.57;4.18;;;;;;;;;;8152636;29;20547;-59
2022/03/15 08:02:37;;;;;;;8.18;4.35;;;;;;;;;;8148563;28;20535;-58
2022/03/15 08:06:37;;;;;;;10.65;4.45;;;;;;;;;;8150535;28;20489;-57
2022/03/15 08:10:38;;;;;;;11.63;4.75;;;;;;;;;;8152061;29;20737;-58
2022/03/15 08:14:38;;;;;;;7.53;4.18;;;;;;;;;;8149403;28;20411;-58
2022/03/15 08:18:38;;;;;;;14.48;4.38;;;;;;;;;;8148513;28;20043;-59
2022/03/15 08:22:39;;;;;;;6.10;4.30;;;;;;;;;;8151457;29;20193;-59
2022/03/15 08:26:39;;;;;;;7.63;4.43;;;;;;;;;;8143838;29;20326;-58
2022/03/15 08:30:39;;;;;;;8.23;4.35;;;;;;;;;;8149891;28;22114;-58
2022/03/15 08:34:41;;;;;;;7.03;4.75;;;;;;;;;;8146113;28;20031;-58
2022/03/15 08:38:41;;;;;;;6.20;4.57;;;;;;;;;;8146852;28;20026;-58
2022/03/15 08:42:41;;;;;;;8.30;4.22;;;;;;;;;;8147705;28;20030;-58
2022/03/15 08:46:42;;;;;;;7.80;4.20;;;;;;;;;;8149742;28;20915;-58
2022/03/15 08:50:43;;;;;;;7.10;4.43;;;;;;;;;;8149963;28;20098;-59
2022/03/15 08:54:43;;;;;;;8.57;4.57;;;;;;;;;;8150481;29;20487;-57
2022/03/15 08:58:43;;;;;;;5.93;4.63;;;;;;;;;;8148328;28;20426;-59
2022/03/15 09:02:44;;;;;;;15.48;4.82;;;;;;;;;;8147116;28;20598;-58
2022/03/15 09:06:44;;;;;;;6.40;4.13;;;;;;;;;;8149186;28;20912;-58
2022/03/15 09:10:45;;;;;;;10.25;4.43;;;;;;;;;;8150747;28;20043;-58
2022/03/15 09:14:46;;;;;;;12.18;7.35;;;;;;;;;;8152161;29;20024;-58
2022/03/15 09:18:46;;;;;;;10.77;6.47;;;;;;;;;;8145848;28;21138;-58
2022/03/15 09:22:46;;;;;;;27.60;10.70;;;;;;;;;;8145051;28;20437;-58
2022/03/15 09:26:47;;;;;;;16.85;8.38;;;;;;;;;;8149091;28;20086;-62
2022/03/15 09:30:47;;;;;;;14.43;6.95;;;;;;;;;;8147497;28;20044;-61
2022/03/15 09:34:47;;;;;;;11.93;5.43;;;;;;;;;;8148783;28;20035;-58
2022/03/15 09:38:47;;;;;;;11.77;4.80;;;;;;;;;;8145328;29;20019;-58
2022/03/15 09:42:48;;;;;;;11.40;5.30;;;;;;;;;;8146774;28;20020;-59
2022/03/15 09:46:51;;;;;;;9.32;4.78;;;;;;;;;;8145554;28;20070;-58
2022/03/15 09:50:51;;;;;;;16.30;8.40;;;;;;;;;;8154791;28;20027;-58
2022/03/15 09:54:51;;;;;;;14.98;7.25;;;;;;;;;;8156569;28;20027;-58
2022/03/15 09:58:51;;;;;;;15.55;7.57;;;;;;;;;;8151194;29;20028;-58
2022/03/15 10:02:51;;;;;;;13.07;7.22;;;;;;;;;;8152317;28;20039;-58
2022/03/15 10:06:52;;;;;;;17.00;7.13;;;;;;;;;;8156299;28;20063;-59
2022/03/15 10:10:53;;;;;;;10.25;4.90;;;;;;;;;;8155378;29;20891;-59
2022/03/15 10:14:56;;;;;;;8.02;4.50;;;;;;;;;;8157399;28;20031;-57
2022/03/15 10:18:57;;;;;;;9.07;4.80;;;;;;;;;;8150881;28;20040;-60
2022/03/15 10:22:59;;;;;;;12.38;5.00;;;;;;;;;;8152411;29;20946;-58
2022/03/15 10:27:00;;;;;;;9.25;4.32;;;;;;;;;;8153801;29;20533;-58
2022/03/15 10:31:02;;;;;;;9.25;5.10;;;;;;;;;;8151866;28;20135;-58
2022/03/15 10:35:08;;;;;;;8.70;4.38;;;;;;;;;;8152929;28;20086;-58
2022/03/15 10:39:09;;;;;;;10.77;4.57;;;;;;;;;;8152323;28;20461;-57
2022/03/15 10:43:10;;;;;;;7.10;4.45;;;;;;;;;;8150622;29;20528;-58
2022/03/15 10:47:13;;;;;;;6.47;4.32;;;;;;;;;;8149349;28;20123;-57
2022/03/15 10:51:14;;;;;;;7.30;4.13;;;;;;;;;;8151742;28;20359;-59
2022/03/15 10:55:16;;;;;;;7.10;4.43;;;;;;;;;;8148644;29;20027;-60
2022/03/15 10:59:16;;;;;;;11.25;5.25;;;;;;;;;;8149394;28;20941;-58
2022/03/15 11:03:23;;;;;;;6.20;4.38;;;;;;;;;;8151265;28;20047;-59
2022/03/15 11:07:23;;;;;;;7.25;4.43;;;;;;;;;;8151089;28;20090;-58
2022/03/15 11:11:26;;;;;;;8.05;4.50;;;;;;;;;;8150139;28;20061;-58
2022/03/15 11:15:28;;;;;;;7.97;4.97;;;;;;;;;;8151032;28;20075;-58
2022/03/15 11:19:31;;;;;;;8.32;5.82;;;;;;;;;;8150946;28;20031;-59
2022/03/15 11:23:32;;;;;;;11.57;6.15;;;;;;;;;;8151870;29;20030;-58
2022/03/15 11:27:34;;;;;;;9.32;5.57;;;;;;;;;;8149995;29;20114;-58
2022/03/15 11:31:35;;;;;;;8.38;5.25;;;;;;;;;;8148878;28;20214;-58
2022/03/15 11:35:36;;;;;;;9.18;5.40;;;;;;;;;;8148573;28;20094;-58
2022/03/15 11:39:38;;;;;;;12.30;6.75;;;;;;;;;;8149522;29;20070;-58
2022/03/15 11:43:50;;;;;;;9.57;6.28;;;;;;;;;;8147394;28;20034;-59
2022/03/15 11:48:06;;;;;;;13.02;7.53;;;;;;;;;;8148767;28;20564;-60
2022/03/15 11:52:26;;;;;;;14.00;7.50;;;;;;;;;;8149714;28;20212;-57
2022/03/15 11:56:32;;;;;;;11.05;7.05;;;;;;;;;;8150888;28;20039;-58
2022/03/15 12:00:42;;;;;;;12.95;7.68;;;;;;;;;;8142317;28;20035;-60
2022/03/15 12:04:44;;;;;;;9.98;6.85;;;;;;;;;;8147642;28;20058;-57
2022/03/15 12:08:51;;;;;;;10.23;6.80;;;;;;;;;;8147914;29;20085;-61
2022/03/15 12:12:58;;;;;;;10.90;6.85;;;;;;;;;;8148280;28;20110;-59
2022/03/15 12:17:03;;;;;;;11.52;6.93;;;;;;;;;;8150047;28;20036;-58
2022/03/15 12:21:10;;;;;;;12.93;7.30;;;;;;;;;;8148576;28;20660;-58
2022/03/15 12:25:12;;;;;;;16.27;7.65;;;;;;;;;;8149694;29;20561;-58
2022/03/15 12:29:14;;;;;;;10.07;7.22;;;;;;;;;;8146117;29;20034;-58
2022/03/15 12:33:23;;;;;;;10.10;7.70;;;;;;;;;;8149831;28;20035;-57
2022/03/15 12:37:39;;;;;;;15.88;9.00;;;;;;;;;;8144825;28;20024;-58
2022/03/15 12:41:39;;;;;;;20.50;12.88;;;;;;;;;;8150368;28;20057;-58
2022/03/15 12:45:46;;;;;;;12.13;7.65;;;;;;;;;;8149838;28;20051;-57
2022/03/15 12:50:03;;;;;;;12.30;8.07;;;;;;;;;;8145575;28;20119;-57
2022/03/15 12:54:05;;;;;;;10.80;8.05;;;;;;;;;;8150584;29;20024;-58
2022/03/15 12:58:06;;;;;;;14.40;8.30;;;;;;;;;;8150012;29;20025;-60
2022/03/15 13:02:06;;;;;;;9.73;7.28;;;;;;;;;;8142629;28;20138;-59
2022/03/15 13:06:15;;;;;;;9.32;6.63;;;;;;;;;;8145279;29;20054;-59
2022/03/15 13:10:18;;;;;;;13.25;6.95;;;;;;;;;;8142048;29;20935;-59
2022/03/15 13:14:26;;;;;;;7.60;6.00;;;;;;;;;;8144641;28;20166;-59
2022/03/15 13:18:27;;;;;;;9.60;7.53;;;;;;;;;;8145616;28;20070;-59
2022/03/15 13:22:29;;;;;;;12.75;6.78;;;;;;;;;;8144846;28;20027;-59
2022/03/15 13:26:29;;;;;;;8.98;7.28;;;;;;;;;;8153641;29;20031;-59
2022/03/15 13:30:29;;;;;;;9.65;7.30;;;;;;;;;;8148604;28;20083;-59
2022/03/15 13:34:31;;;;;;;8.48;6.70;;;;;;;;;;8152220;28;20451;-59
2022/03/15 13:38:34;;;;;;;9.00;6.63;;;;;;;;;;8154277;28;20035;-59
2022/03/15 13:42:34;;;;;;;9.83;6.73;;;;;;;;;;8150718;28;20515;-59
2022/03/15 13:46:35;;;;;;;9.25;6.80;;;;;;;;;;8151518;28;20912;-60
2022/03/15 13:50:35;;;;;;;9.25;7.63;;;;;;;;;;8151675;28;20036;-59
2022/03/15 13:55:00;;;;;;;9.63;7.80;;;;;;;;;;8153102;28;20035;-59
2022/03/15 13:59:01;;;;;;;8.18;6.15;;;;;;;;;;8150397;28;20625;-59
2022/03/15 14:03:06;;;;;;;10.00;6.40;;;;;;;;;;8151713;28;20039;-59
2022/03/15 14:07:11;;;;;;;7.82;5.80;;;;;;;;;;8155344;28;20279;-59
2022/03/15 14:11:12;;;;;;;8.88;6.13;;;;;;;;;;8152983;28;20035;-59
2022/03/15 14:15:13;;;;;;;6.93;6.03;;;;;;;;;;8148058;28;20060;-60
2022/03/15 14:19:18;;;;;;;7.82;6.65;;;;;;;;;;8148621;28;20031;-59
2022/03/15 14:23:19;;;;;;;8.10;6.38;;;;;;;;;;8146468;28;20027;-59
2022/03/15 14:27:19;;;;;;;8.77;7.60;;;;;;;;;;8150217;28;20032;-60
2022/03/15 14:31:25;;;;;;;11.93;7.55;;;;;;;;;;8155798;28;20497;-59
2022/03/15 14:35:27;;;;;;;13.98;7.10;;;;;;;;;;8150158;28;21253;-59
2022/03/15 14:39:31;;;;;;;7.78;6.97;;;;;;;;;;8146968;28;20624;-60
2022/03/15 14:43:33;;;;;;;8.87;5.90;;;;;;;;;;8149438;29;20031;-59
2022/03/15 14:47:35;;;;;;;6.13;5.53;;;;;;;;;;8145527;28;20037;-59
2022/03/15 14:51:36;;;;;;;7.20;6.07;;;;;;;;;;8146962;28;20740;-59
2022/03/15 14:55:37;;;;;;;6.90;6.20;;;;;;;;;;8141449;28;20464;-59
2022/03/15 14:59:38;;;;;;;8.02;6.82;;;;;;;;;;8143031;29;20030;-59
2022/03/15 15:03:39;;;;;;;9.83;7.87;;;;;;;;;;8145299;28;20043;-59
2022/03/15 15:07:40;;;;;;;7.35;6.57;;;;;;;;;;8144259;28;20858;-59
2022/03/15 15:11:41;;;;;;;7.97;6.68;;;;;;;;;;8142306;28;20031;-59
2022/03/15 15:15:47;;;;;;;7.55;6.82;;;;;;;;;;8142410;28;20509;-59
2022/03/15 15:19:49;;;;;;;6.43;5.63;;;;;;;;;;8142879;28;20039;-59
2022/03/15 15:23:51;;;;;;;6.38;5.68;;;;;;;;;;8139378;28;20515;-60
2022/03/15 15:27:52;;;;;;;7.70;6.65;;;;;;;;;;8142160;28;20891;-59
2022/03/15 15:31:52;;;;;;;6.38;5.57;;;;;;;;;;8143080;28;20159;-59
2022/03/15 15:35:52;;;;;;;7.53;6.00;;;;;;;;;;8140253;28;20110;-59
2022/03/15 15:39:53;;;;;;;6.53;5.70;;;;;;;;;;8141732;28;20569;-59
2022/03/15 15:43:53;;;;;;;6.75;5.55;;;;;;;;;;8142043;28;20235;-60
2022/03/15 15:47:54;;;;;;;6.47;5.78;;;;;;;;;;8137412;28;20039;-59
2022/03/15 15:51:57;;;;;;;7.50;5.55;;;;;;;;;;8140121;28;20515;-59
2022/03/15 15:55:58;;;;;;;6.05;5.45;;;;;;;;;;8135847;28;20023;-59
2022/03/15 15:59:59;;;;;;;7.13;6.00;;;;;;;;;;8141264;28;20170;-59
2022/03/15 16:04:00;;;;;;;6.38;5.72;;;;;;;;;;8135294;28;20081;-59
2022/03/15 16:08:01;;;;;;;6.43;5.18;;;;;;;;;;8139052;28;20034;-59
2022/03/15 16:12:02;;;;;;;8.00;5.43;;;;;;;;;;8136473;28;20101;-59
2022/03/15 16:16:04;;;;;;;6.15;5.40;;;;;;;;;;8137692;28;20028;-59
2022/03/15 16:20:04;;;;;;;5.50;4.95;;;;;;;;;;8141134;28;20081;-59
2022/03/15 16:24:05;;;;;;;7.85;5.47;;;;;;;;;;8139272;28;20110;-59
2022/03/15 16:28:05;;;;;;;5.75;5.13;;;;;;;;;;8136921;28;20028;-59
2022/03/15 16:32:15;;;;;;;5.95;5.28;;;;;;;;;;8137227;28;20050;-60
2022/03/15 16:36:16;;;;;;;6.63;5.50;;;;;;;;;;8132224;28;20476;-59
2022/03/15 16:40:16;;;;;;;5.85;5.25;;;;;;;;;;8135747;28;20059;-59
2022/03/15 16:44:17;;;;;;;6.82;5.28;;;;;;;;;;8138283;28;20581;-60
2022/03/15 16:48:17;;;;;;;6.60;5.80;;;;;;;;;;8136623;28;20131;-60
2022/03/15 16:52:18;;;;;;;5.72;5.07;;;;;;;;;;8141157;28;20823;-59
2022/03/15 16:56:18;;;;;;;5.88;5.28;;;;;;;;;;8143947;28;20082;-59
2022/03/15 17:00:19;;;;;;;7.60;6.63;;;;;;;;;;8144606;28;20332;-60
2022/03/15 17:08:38;;;;;;;6.28;5.53;;;;;;;;;;8141751;28;20607;-59
2022/03/15 17:12:38;;;;;;;7.35;6.65;;;;;;;;;;8143013;28;20461;-59
2022/03/15 17:16:38;;;;;;;11.27;7.60;;;;;;;;;;8141115;28;20102;-60
2022/03/15 17:20:39;;;;;;;10.43;7.78;;;;;;;;;;8142590;28;20283;-59
2022/03/15 17:24:39;;;;;;;7.90;6.75;;;;;;;;;;8144068;29;20102;-59
2022/03/15 17:28:41;;;;;;;8.20;7.28;;;;;;;;;;8143622;29;20043;-59
2022/03/15 17:32:46;;;;;;;9.32;7.32;;;;;;;;;;8141524;28;20032;-59
2022/03/15 17:36:46;;;;;;;11.95;8.73;;;;;;;;;;8143194;29;20043;-59
2022/03/15 17:40:51;;;;;;;13.95;9.73;;;;;;;;;;8136497;28;20039;-59
2022/03/15 17:44:56;;;;;;;14.60;10.90;;;;;;;;;;8135637;28;20023;-59
2022/03/15 17:49:12;;;;;;;24.00;11.45;;;;;;;;;;8136497;28;20573;-59
2022/03/15 17:53:14;;;;;;;37.53;10.43;;;;;;;;;;8137613;28;20452;-59
2022/03/15 17:57:20;;;;;;;74.70;11.73;;;;;;;;;;8137090;28;20024;-59
2022/03/15 18:01:22;;;;;;;180.18;12.60;;;;;;;;;;8137945;28;20571;-59
2022/03/15 18:05:22;;;;;;;296.35;12.80;;;;;;;;;;8137699;28;20452;-60
2022/03/15 18:09:22;;;;;;;184.63;11.60;;;;;;;;;;8139839;28;20042;-59
2022/03/15 18:13:24;;;;;;;170.07;11.30;;;;;;;;;;8143697;28;20030;-59
2022/03/15 18:17:26;;;;;;;270.75;14.10;;;;;;;;;;8141822;28;20049;-59
2022/03/15 18:21:30;;;;;;;308.20;15.10;;;;;;;;;;8142113;28;20038;-59
2022/03/15 18:25:32;;;;;;;183.10;13.43;;;;;;;;;;8141378;28;20031;-59
2022/03/15 18:29:32;;;;;;;201.73;14.10;;;;;;;;;;8143280;28;20058;-59
2022/03/15 18:33:33;;;;;;;184.00;13.45;;;;;;;;;;8141536;28;20130;-59
2022/03/15 18:37:33;;;;;;;222.48;14.38;;;;;;;;;;8142268;29;20082;-59
2022/03/15 18:41:34;;;;;;;79.15;12.43;;;;;;;;;;8138047;29;20046;-59
2022/03/15 18:45:36;;;;;;;218.15;14.73;;;;;;;;;;8143543;28;20457;-59
2022/03/15 18:49:41;;;;;;;182.52;14.63;;;;;;;;;;8137319;28;20380;-59
2022/03/15 18:53:42;;;;;;;52.97;13.35;;;;;;;;;;8140453;28;20022;-59
2022/03/15 18:57:43;;;;;;;37.10;12.27;;;;;;;;;;8139908;28;20348;-58
2022/03/15 19:01:43;;;;;;;62.80;12.55;;;;;;;;;;8140990;28;20035;-58
2022/03/15 19:05:45;;;;;;;100.32;13.65;;;;;;;;;;8135122;28;20059;-58
2022/03/15 19:09:48;;;;;;;40.83;12.65;;;;;;;;;;8139196;28;20365;-59
2022/03/15 19:13:51;;;;;;;177.45;14.57;;;;;;;;;;8138417;28;20654;-59
2022/03/15 19:17:51;;;;;;;224.27;14.65;;;;;;;;;;8141071;28;20035;-59
2022/03/15 19:21:54;;;;;;;123.50;14.05;;;;;;;;;;8140029;28;20086;-59
2022/03/15 19:25:54;;;;;;;124.68;14.32;;;;;;;;;;8139482;29;20248;-59
2022/03/15 19:29:55;;;;;;;212.95;16.60;;;;;;;;;;8139901;28;20031;-59
2022/03/15 19:33:57;;;;;;;59.53;15.35;;;;;;;;;;8138754;28;20032;-60
2022/03/15 19:37:57;;;;;;;65.80;15.95;;;;;;;;;;8139912;28;20031;-59
2022/03/15 19:41:58;;;;;;;82.53;16.93;;;;;;;;;;8139940;28;20039;-59
2022/03/15 19:45:58;;;;;;;48.13;16.17;;;;;;;;;;8138817;28;20399;-59
2022/03/15 19:49:58;;;;;;;46.83;15.73;;;;;;;;;;8138712;28;20031;-59
2022/03/15 19:53:59;;;;;;;35.70;16.63;;;;;;;;;;8138115;28;20027;-59
2022/03/15 19:57:59;;;;;;;25.02;15.52;;;;;;;;;;8136233;28;20027;-59
2022/03/15 20:02:01;;;;;;;77.00;17.73;;;;;;;;;;8140120;28;20541;-59
2022/03/15 20:06:03;;;;;;;30.05;18.13;;;;;;;;;;8139555;28;20540;-59
2022/03/15 20:10:06;;;;;;;23.88;17.05;;;;;;;;;;8137917;28;20015;-59
2022/03/15 20:14:10;;;;;;;27.40;17.02;;;;;;;;;;8139285;28;20758;-59
2022/03/15 20:18:12;;;;;;;23.83;16.02;;;;;;;;;;8140511;28;20700;-59
2022/03/15 20:22:13;;;;;;;22.90;16.40;;;;;;;;;;8137495;28;20026;-59
2022/03/15 20:26:16;;;;;;;26.50;17.75;;;;;;;;;;8137821;28;20035;-59
2022/03/15 20:30:16;;;;;;;21.67;15.82;;;;;;;;;;8136545;28;20023;-59
2022/03/15 20:34:16;;;;;;;22.17;15.80;;;;;;;;;;8138951;29;20540;-59
2022/03/15 20:38:16;;;;;;;22.40;15.25;;;;;;;;;;8138718;28;20034;-60
2022/03/15 20:42:17;;;;;;;22.20;15.43;;;;;;;;;;8136892;28;20737;-59
2022/03/15 20:46:18;;;;;;;22.15;14.55;;;;;;;;;;8139921;28;20394;-59
2022/03/15 20:50:18;;;;;;;20.42;14.82;;;;;;;;;;8138143;28;20620;-59
2022/03/15 20:54:19;;;;;;;20.85;15.25;;;;;;;;;;8137440;28;20105;-59
2022/03/15 20:58:19;;;;;;;20.73;15.40;;;;;;;;;;8139626;28;20083;-59
2022/03/15 21:02:22;;;;;;;21.15;14.95;;;;;;;;;;8136937;28;20098;-59
2022/03/15 21:06:23;;;;;;;20.08;15.18;;;;;;;;;;8139351;28;20960;-59
2022/03/15 21:10:23;;;;;;;20.52;15.05;;;;;;;;;;8136780;28;20063;-59
2022/03/15 21:14:33;;;;;;;20.30;14.35;;;;;;;;;;8137613;28;20244;-60
2022/03/15 21:18:37;;;;;;;22.77;15.38;;;;;;;;;;8135504;28;20043;-59
2022/03/15 21:22:37;;;;;;;20.85;14.70;;;;;;;;;;8138393;29;20035;-59
2022/03/15 21:26:38;;;;;;;16.95;13.70;;;;;;;;;;8138416;28;20071;-59
2022/03/15 21:30:38;;;;;;;22.10;14.77;;;;;;;;;;8138345;28;20070;-59
2022/03/15 21:34:39;;;;;;;20.58;16.02;;;;;;;;;;8137387;28;20294;-59
2022/03/15 21:38:40;;;;;;;23.80;15.70;;;;;;;;;;8137861;28;20156;-59
2022/03/15 21:42:40;;;;;;;19.42;15.18;;;;;;;;;;8140986;28;20031;-59
2022/03/15 21:46:44;;;;;;;27.93;18.53;;;;;;;;;;8145147;28;20494;-59
2022/03/15 21:50:45;;;;;;;27.67;18.60;;;;;;;;;;8143398;28;20537;-59
2022/03/15 21:54:46;;;;;;;26.52;18.17;;;;;;;;;;8145124;29;20537;-59
2022/03/15 21:58:50;;;;;;;29.98;20.15;;;;;;;;;;8142881;29;20456;-59
2022/03/15 22:02:50;;;;;;;27.17;18.40;;;;;;;;;;8143446;28;20573;-59
2022/03/15 22:06:50;;;;;;;24.73;17.73;;;;;;;;;;8143383;28;20035;-59
2022/03/15 22:10:55;;;;;;;26.80;19.08;;;;;;;;;;8142533;28;20453;-58
2022/03/15 22:14:56;;;;;;;29.05;19.77;;;;;;;;;;8144575;28;20027;-59
2022/03/15 22:18:56;;;;;;;26.05;17.67;;;;;;;;;;8142139;28;20094;-59
2022/03/15 22:22:57;;;;;;;27.38;18.40;;;;;;;;;;8142222;28;20583;-59
2022/03/15 22:26:58;;;;;;;27.33;18.05;;;;;;;;;;8143279;28;20520;-59
2022/03/15 23:17:56;;;;;;;16.42;10.38;;;;;;;;;;8143839;28;20042;-58
2022/03/15 23:26:15;;;;;;;43.03;10.45;;;;;;;;;;8143685;28;20098;-58
2022/03/15 23:30:17;;;;;;;13.88;8.93;;;;;;;;;;8143068;28;20475;-59
2022/03/15 23:34:17;;;;;;;151.73;10.25;;;;;;;;;;8145767;28;20031;-59
2022/03/15 23:38:17;;;;;;;25.33;9.20;;;;;;;;;;8144544;28;20012;-58
2022/03/15 23:42:17;;;;;;;26.23;9.25;;;;;;;;;;8143588;28;20763;-59
2022/03/15 23:46:17;;;;;;;71.82;10.13;;;;;;;;;;8143185;28;20548;-59
2022/03/15 23:50:19;;;;;;;77.25;10.45;;;;;;;;;;8145245;28;20040;-58
2022/03/15 23:54:19;;;;;;;113.13;9.48;;;;;;;;;;8143928;28;20057;-58
2022/03/15 23:58:19;;;;;;;100.13;8.75;;;;;;;;;;8143951;28;20015;-58
